Time;durP1;ratioP1;P1;durP2;ratioP2;P2;SDS_P1;SDS_P2;PMS_P1;PMS_P2;Temp;Humidity;BMP_temperature;BMP_pressure;BME280_temperature;BME280_humidity;BME280_pressure;Samples;Min_cycle;Max_cycle;Signal;HPM_P1;HPM_P2
2022/04/05 00:00:50;;;;;;;;;7.33;1.67;;;;;23.09;58.77;101080.97;5057068;28;45889;-66
2022/04/05 00:03:15;;;;;;;;;6.33;2.00;;;;;23.07;58.61;101072.09;5053825;28;45455;-67
2022/04/05 00:05:41;;;;;;;;;3.67;3.00;;;;;23.10;58.27;101085.41;5058550;28;46234;-66
2022/04/05 00:08:06;;;;;;;;;8.33;4.00;;;;;23.08;58.60;101082.78;5032092;28;46135;-65
2022/04/05 00:10:32;;;;;;;;;5.67;2.00;;;;;23.06;58.81;101075.69;5038840;28;45321;-65
2022/04/05 00:12:58;;;;;;;;;7.67;2.33;;;;;23.09;58.60;101080.97;5038974;28;45437;-66
2022/04/05 00:15:23;;;;;;;;;6.67;3.00;;;;;23.07;58.59;101069.38;5037456;28;47225;-65
2022/04/05 00:17:49;;;;;;;;;4.00;2.67;;;;;23.08;58.75;101071.13;5050234;28;45404;-65
2022/04/05 00:20:14;;;;;;;;;8.33;3.00;;;;;23.09;58.84;101078.28;5044184;28;45478;-65
2022/04/05 00:22:39;;;;;;;;;4.00;3.00;;;;;23.07;58.51;101070.25;5039036;28;45435;-65
2022/04/05 00:25:06;;;;;;;;;8.67;2.00;;;;;23.09;58.43;101075.59;5038416;28;46755;-65
2022/04/05 00:27:31;;;;;;;;;6.67;1.00;;;;;23.11;58.58;101076.38;5046056;28;45285;-65
2022/04/05 00:29:59;;;;;;;;;7.00;3.00;;;;;23.10;58.65;101077.34;5049686;28;45222;-65
2022/04/05 00:32:24;;;;;;;;;4.33;2.00;;;;;23.08;58.48;101071.13;5040695;28;45382;-65
2022/04/05 00:34:50;;;;;;;;;3.67;1.00;;;;;23.09;58.66;101078.28;5040412;28;48948;-65
2022/04/05 00:37:16;;;;;;;;;5.67;2.00;;;;;23.10;58.89;101080.91;5031092;28;46280;-65
2022/04/05 00:39:41;;;;;;;;;5.67;1.67;;;;;23.09;58.55;101065.69;5050067;28;45280;-65
2022/04/05 00:42:09;;;;;;;;;9.00;2.00;;;;;23.10;58.56;101062.03;5057664;28;45425;-67
2022/04/05 00:44:35;;;;;;;;;7.00;1.33;;;;;23.12;58.76;101070.97;5024065;28;46814;-65
2022/04/05 00:47:01;;;;;;;;;5.67;1.67;;;;;23.11;58.53;101066.50;5051774;28;45315;-66
2022/04/05 00:49:29;;;;;;;;;4.00;1.00;;;;;23.10;58.70;101066.56;5038883;28;45235;-65
2022/04/05 00:51:54;;;;;;;;;5.00;2.33;;;;;23.11;58.94;101065.63;5039504;28;45562;-65
2022/04/05 00:54:20;;;;;;;;;5.67;2.00;;;;;23.13;58.79;101066.47;5054835;28;47539;-65
2022/04/05 00:56:45;;;;;;;;;6.00;2.00;;;;;23.13;58.89;101064.66;5039114;28;47309;-66
2022/04/05 00:59:11;;;;;;;;;5.00;2.67;;;;;23.13;58.71;101070.03;5038759;28;45799;-65
2022/04/05 01:01:36;;;;;;;;;6.33;4.00;;;;;23.13;58.71;101061.94;5051591;28;45364;-65
2022/04/05 01:04:01;;;;;;;;;5.67;3.00;;;;;23.12;58.95;101062.88;5040929;28;46620;-67
2022/04/05 01:06:30;;;;;;;;;10.67;2.33;;;;;23.11;58.75;101058.41;5041732;28;45839;-65
2022/04/05 01:08:56;;;;;;;;;3.67;1.00;;;;;23.14;58.80;101060.13;5020493;28;45339;-65
2022/04/05 01:11:22;;;;;;;;;7.33;2.00;;;;;23.11;58.91;101058.41;5020420;28;45622;-65
2022/04/05 01:13:48;;;;;;;;;2.33;2.00;;;;;23.13;59.03;101056.56;5037925;28;46119;-65
2022/04/05 01:16:13;;;;;;;;;3.00;1.33;;;;;23.13;58.95;101053.00;5038112;28;45376;-66
2022/04/05 01:18:39;;;;;;;;;3.00;2.00;;;;;23.12;58.74;101052.13;5037429;28;45457;-65
2022/04/05 01:21:04;;;;;;;;;3.00;1.33;;;;;23.15;58.81;101061.88;5050771;28;45410;-65
2022/04/05 01:23:30;;;;;;;;;5.00;1.33;;;;;23.15;58.87;101056.50;5037453;28;46607;-65
2022/04/05 01:25:56;;;;;;;;;6.33;3.00;;;;;23.15;59.23;101056.50;5047687;28;45453;-66
2022/04/05 01:28:22;;;;;;;;;3.00;1.00;;;;;23.14;59.19;101049.34;5038054;28;45399;-64
2022/04/05 01:30:47;;;;;;;;;3.33;2.00;;;;;23.16;59.04;101052.84;5029973;28;45435;-65
2022/04/05 01:33:13;;;;;;;;;7.33;1.67;;;;;23.15;58.99;101034.94;5037925;28;46628;-64
2022/04/05 01:35:39;;;;;;;;;2.00;2.00;;;;;23.14;58.88;101039.44;5045567;28;47354;-64
2022/04/05 01:38:06;;;;;;;;;2.67;1.00;;;;;23.14;58.90;101035.88;5053526;28;45347;-67
2022/04/05 01:40:31;;;;;;;;;5.33;2.00;;;;;23.13;58.97;101032.31;5039338;28;45632;-64
2022/04/05 01:42:57;;;;;;;;;3.67;2.00;;;;;23.13;58.82;101029.63;5056249;28;51516;-64
2022/04/05 01:45:22;;;;;;;;;7.67;2.00;;;;;23.11;59.12;101026.09;5054772;28;45398;-64
2022/04/05 01:47:48;;;;;;;;;5.00;1.33;;;;;23.13;58.96;101028.75;5052725;28;45413;-64
2022/04/05 01:50:13;;;;;;;;;6.00;1.00;;;;;23.12;58.83;101033.25;5054848;28;45324;-64
2022/04/05 01:52:38;;;;;;;;;3.33;1.00;;;;;23.11;58.92;101033.28;5056729;28;46324;-65
2022/04/05 01:55:05;;;;;;;;;4.33;1.00;;;;;23.11;58.62;101028.78;5054494;28;51602;-67
2022/04/05 01:57:31;;;;;;;;;3.00;2.00;;;;;23.11;59.13;101025.22;5032139;28;45280;-65
2022/04/05 01:59:56;;;;;;;;;2.00;1.00;;;;;23.10;58.94;101018.94;5054830;28;47739;-65
2022/04/05 02:02:22;;;;;;;;;6.00;1.00;;;;;23.11;59.27;101023.41;5048532;28;46582;-66
2022/04/05 02:04:47;;;;;;;;;5.67;3.00;;;;;23.10;59.26;101021.66;5049385;28;45402;-66
2022/04/05 02:07:17;;;;;;;;;1.67;1.00;;;;;23.08;59.04;101018.13;5055164;28;45890;-65
2022/04/05 02:09:43;;;;;;;;;6.33;2.00;;;;;23.10;58.99;101026.16;5038080;28;45285;-64
2022/04/05 02:12:12;;;;;;;;;7.67;2.00;;;;;23.09;58.97;101021.72;5056034;28;45700;-64
2022/04/05 02:14:38;;;;;;;;;4.67;1.00;;;;;23.09;59.06;101021.72;5055816;28;45427;-64
2022/04/05 02:17:04;;;;;;;;;5.00;2.00;;;;;23.08;59.13;101022.66;5056070;28;45272;-65
2022/04/05 02:19:30;;;;;;;;;2.00;2.00;;;;;23.10;59.47;101023.47;5019036;28;45578;-66
2022/04/05 02:21:55;;;;;;;;;4.00;1.00;;;;;23.09;59.13;101029.78;5055470;28;54909;-64
2022/04/05 02:24:21;;;;;;;;;6.33;1.67;;;;;23.09;59.47;101027.97;5055701;28;45458;-64
2022/04/05 02:26:48;;;;;;;;;3.33;1.00;;;;;23.09;59.63;101021.72;5050965;28;45134;-64
2022/04/05 02:29:13;;;;;;;;;6.67;1.00;;;;;23.08;59.43;101028.91;5038897;28;45568;-65
2022/04/05 02:31:38;;;;;;;;;7.00;1.00;;;;;23.09;59.09;101025.28;5047206;28;48884;-64
2022/04/05 02:34:04;;;;;;;;;6.33;1.33;;;;;23.08;59.20;101019.97;5056961;28;45324;-65
2022/04/05 02:36:29;;;;;;;;;6.00;2.00;;;;;23.08;59.17;101019.97;5056833;28;45252;-66
2022/04/05 02:38:55;;;;;;;;;2.33;1.00;;;;;23.06;58.94;101011.03;5051401;28;45344;-67
2022/04/05 02:41:20;;;;;;;;;6.00;2.00;;;;;23.06;59.25;101005.66;5046169;28;45987;-64
2022/04/05 02:43:45;;;;;;;;;6.00;3.00;;;;;23.06;59.18;101002.97;5056358;28;47003;-66
2022/04/05 02:46:11;;;;;;;;;6.33;1.00;;;;;23.06;59.16;101008.34;5045295;28;45336;-64
2022/04/05 02:48:43;;;;;;;;;3.00;0.67;;;;;23.05;59.25;101007.47;5018820;28;45329;-66
2022/04/05 02:51:11;;;;;;;;;7.00;1.00;;;;;23.05;58.94;101003.91;5038374;28;47390;-65
2022/04/05 02:53:36;;;;;;;;;5.67;1.00;;;;;23.07;59.21;101010.13;5042405;28;45590;-65
2022/04/05 02:56:01;;;;;;;;;5.00;2.00;;;;;23.07;59.11;100993.97;5032002;28;45332;-65
2022/04/05 02:58:27;;;;;;;;;1.67;1.00;;;;;23.08;59.37;101003.81;5059537;28;46204;-64
2022/04/05 03:00:53;;;;;;;;;3.67;1.33;;;;;23.09;59.55;100998.34;5059064;28;50044;-64
2022/04/05 03:03:18;;;;;;;;;7.00;2.00;;;;;23.09;59.38;100997.47;5051618;28;45313;-64
2022/04/05 03:05:44;;;;;;;;;7.33;2.00;;;;;23.12;59.42;100995.53;5058905;28;45353;-65
2022/04/05 03:08:09;;;;;;;;;4.00;1.67;;;;;23.13;59.48;101004.50;5059617;28;45420;-66
2022/04/05 03:10:34;;;;;;;;;4.33;2.00;;;;;23.14;59.61;100995.47;5058849;28;46380;-65
2022/04/05 03:13:03;;;;;;;;;6.67;2.33;;;;;23.14;59.26;100995.47;5057228;28;49675;-67
2022/04/05 03:15:29;;;;;;;;;6.00;1.67;;;;;23.14;59.52;100992.78;5053885;28;45211;-67
2022/04/05 03:17:55;;;;;;;;;1.00;1.00;;;;;23.14;59.31;100996.34;5052153;28;45320;-65
2022/04/05 03:20:20;;;;;;;;;5.33;1.33;;;;;23.12;59.31;100991.97;5051137;28;45619;-64
2022/04/05 03:22:46;;;;;;;;;5.00;2.00;;;;;23.14;59.11;100987.41;5058818;28;45966;-65
2022/04/05 03:25:11;;;;;;;;;5.00;1.00;;;;;23.16;59.31;100997.16;5058621;28;45725;-65
2022/04/05 03:27:38;;;;;;;;;8.67;2.00;;;;;23.16;59.21;100996.28;5059557;28;45379;-64
2022/04/05 03:30:04;;;;;;;;;1.00;1.00;;;;;23.16;59.15;100990.91;5056218;28;45285;-64
2022/04/05 03:32:30;;;;;;;;;2.00;1.00;;;;;23.17;59.27;100989.94;5044709;28;45393;-64
2022/04/05 03:34:55;;;;;;;;;3.00;2.00;;;;;23.16;59.30;100989.06;5051926;28;45490;-65
2022/04/05 03:37:21;;;;;;;;;3.00;0.00;;;;;23.16;59.23;100989.06;5040741;28;45695;-64
2022/04/05 03:39:46;;;;;;;;;3.00;1.33;;;;;23.15;59.24;100987.31;5058758;28;46599;-65
2022/04/05 03:42:11;;;;;;;;;5.67;2.33;;;;;23.17;59.22;100981.88;5056933;28;45893;-65
2022/04/05 03:44:37;;;;;;;;;4.67;2.00;;;;;23.16;59.03;100986.38;5040673;28;45254;-67
2022/04/05 03:47:02;;;;;;;;;4.33;1.33;;;;;23.16;59.48;100982.81;5054943;28;45677;-64
2022/04/05 03:49:28;;;;;;;;;1.00;1.00;;;;;23.16;59.27;100980.13;5058550;28;47136;-64
2022/04/05 03:51:53;;;;;;;;;4.00;2.00;;;;;23.16;59.03;100975.59;5056598;28;45387;-66
2022/04/05 03:54:19;;;;;;;;;6.00;1.00;;;;;23.16;59.45;100975.59;5058922;28;45300;-65
2022/04/05 03:56:45;;;;;;;;;2.00;1.00;;;;;23.16;59.41;100974.72;5054108;28;45573;-65
2022/04/05 03:59:10;;;;;;;;;2.33;0.33;;;;;23.17;59.28;100979.19;5053805;28;48363;-65
2022/04/05 04:01:36;;;;;;;;;1.00;1.00;;;;;23.17;59.42;100974.69;5053839;28;45497;-65
2022/04/05 04:04:01;;;;;;;;;1.33;1.33;;;;;23.17;59.29;100976.47;5055196;28;48705;-65
2022/04/05 04:06:27;;;;;;;;;5.33;1.00;;;;;23.18;59.52;100978.28;5050786;28;45710;-64
2022/04/05 04:08:52;;;;;;;;;2.67;1.00;;;;;23.17;59.29;100973.78;5053820;28;46382;-65
2022/04/05 04:11:17;;;;;;;;;10.67;1.67;;;;;23.18;59.38;100978.28;5057643;28;49887;-66
2022/04/05 04:13:43;;;;;;;;;4.33;1.67;;;;;23.15;59.16;100965.78;5039664;28;45473;-66
2022/04/05 04:16:08;;;;;;;;;2.00;2.00;;;;;23.18;59.39;100965.66;5057240;28;45257;-64
2022/04/05 04:18:34;;;;;;;;;2.33;1.00;;;;;23.19;59.32;100972.81;5057455;28;45501;-66
2022/04/05 04:20:59;;;;;;;;;2.67;1.00;;;;;23.19;59.46;100967.41;5056961;28;45447;-66
2022/04/05 04:23:24;;;;;;;;;5.67;1.00;;;;;23.17;59.54;100965.72;5057285;28;45817;-65
2022/04/05 04:25:50;;;;;;;;;4.00;1.00;;;;;23.19;59.43;100961.16;5042490;28;45530;-66
2022/04/05 04:28:15;;;;;;;;;5.00;2.00;;;;;23.20;59.57;100963.78;5048980;28;46484;-65
2022/04/05 04:30:41;;;;;;;;;1.00;1.00;;;;;23.20;59.54;100961.09;5056213;28;49200;-66
2022/04/05 04:33:06;;;;;;;;;6.00;2.00;;;;;23.21;59.36;100968.22;5057279;28;45343;-65
2022/04/05 04:35:32;;;;;;;;;8.00;1.00;;;;;23.19;59.62;100964.72;5050991;28;45351;-64
2022/04/05 04:37:58;;;;;;;;;5.33;1.67;;;;;23.21;59.30;100970.91;5050689;28;47372;-65
2022/04/05 04:40:24;;;;;;;;;3.33;1.00;;;;;23.21;59.41;100960.13;5050201;28;45494;-66
2022/04/05 04:42:49;;;;;;;;;4.00;1.67;;;;;23.17;59.62;100953.16;5057883;28;45364;-65
2022/04/05 04:45:15;;;;;;;;;3.33;1.00;;;;;23.22;59.45;100967.31;5039503;28;45430;-66
2022/04/05 04:47:40;;;;;;;;;3.33;1.00;;;;;23.22;59.85;100961.94;5053383;28;46115;-66
2022/04/05 04:50:07;;;;;;;;;4.33;1.00;;;;;23.22;59.50;100961.00;5016549;28;45439;-66
2022/04/05 04:52:32;;;;;;;;;1.00;1.00;;;;;23.21;59.60;100953.88;5047874;28;45430;-65
2022/04/05 04:54:58;;;;;;;;;5.00;1.00;;;;;23.21;59.41;100957.44;5056657;28;45494;-65
2022/04/05 04:57:25;;;;;;;;;3.00;1.00;;;;;23.21;59.90;100954.75;5033737;28;47519;-66
2022/04/05 04:59:50;;;;;;;;;2.33;2.00;;;;;23.19;59.52;100955.78;5056915;28;45412;-67
2022/04/05 05:02:16;;;;;;;;;3.67;1.00;;;;;23.21;59.48;100954.75;5055062;28;45279;-66
2022/04/05 05:04:41;;;;;;;;;0.00;0.00;;;;;23.19;59.81;100956.66;5038912;28;45324;-66
2022/04/05 05:07:07;;;;;;;;;7.33;1.00;;;;;23.21;59.54;100954.75;5057053;28;46603;-66
2022/04/05 05:09:33;;;;;;;;;4.67;1.00;;;;;23.21;59.61;100953.88;5034441;28;45413;-67
2022/04/05 05:11:59;;;;;;;;;5.00;2.00;;;;;23.22;59.63;100963.72;5055298;28;45288;-67
2022/04/05 05:14:27;;;;;;;;;7.00;2.00;;;;;23.20;59.87;100953.00;5052665;28;45416;-67
2022/04/05 05:16:53;;;;;;;;;4.33;1.00;;;;;23.21;59.89;100962.84;5046024;28;45921;-69
2022/04/05 05:19:18;;;;;;;;;3.33;0.67;;;;;23.21;59.89;100953.88;5033907;28;46016;-68
2022/04/05 05:21:44;;;;;;;;;6.67;1.33;;;;;23.22;59.95;100961.94;5055619;28;45807;-68
2022/04/05 05:24:09;;;;;;;;;1.33;1.00;;;;;23.25;59.46;100955.53;5053202;28;45391;-67
2022/04/05 05:26:35;;;;;;;;;3.00;2.00;;;;;23.25;59.81;100956.41;5053383;28;48000;-67
2022/04/05 05:29:00;;;;;;;;;8.00;1.67;;;;;23.27;60.06;100948.25;5052089;28;45355;-68
2022/04/05 05:31:25;;;;;;;;;5.33;2.00;;;;;23.29;59.88;100949.09;5053934;28;45367;-65
2022/04/05 05:33:51;;;;;;;;;6.00;2.00;;;;;23.31;59.80;100955.28;5054700;28;45401;-67
2022/04/05 05:36:16;;;;;;;;;3.33;1.00;;;;;23.28;60.03;100947.34;5054265;28;49983;-66
2022/04/05 05:38:42;;;;;;;;;2.00;2.00;;;;;23.34;59.67;100955.16;5054918;28;45385;-66
2022/04/05 05:41:07;;;;;;;;;9.00;1.00;;;;;23.34;59.90;100949.78;5056297;28;45485;-66
2022/04/05 05:43:33;;;;;;;;;4.67;1.00;;;;;23.36;59.84;100950.59;5052407;28;45464;-65
2022/04/05 05:45:58;;;;;;;;;3.33;1.00;;;;;23.37;59.73;100955.03;5044508;28;46021;-66
2022/04/05 05:48:24;;;;;;;;;5.00;2.00;;;;;23.37;59.71;100952.31;5041026;28;45427;-68
2022/04/05 05:50:51;;;;;;;;;7.00;2.00;;;;;23.40;59.69;100954.03;5050115;28;47073;-65
2022/04/05 05:53:16;;;;;;;;;5.67;1.00;;;;;23.38;59.76;100953.19;5045343;28;45894;-67
2022/04/05 05:55:41;;;;;;;;;4.00;2.00;;;;;23.38;59.54;100948.69;5052116;28;46187;-66
2022/04/05 05:58:07;;;;;;;;;2.67;1.00;;;;;23.37;59.54;100955.03;5041842;28;45684;-66
2022/04/05 06:00:33;;;;;;;;;4.33;1.00;;;;;23.39;59.79;100961.25;5030499;28;45522;-68
2022/04/05 06:03:01;;;;;;;;;2.33;1.33;;;;;23.36;59.67;100957.78;5052109;28;45522;-67
2022/04/05 06:05:27;;;;;;;;;7.33;2.00;;;;;23.37;59.73;100971.19;5049961;28;47174;-65
2022/04/05 06:07:52;;;;;;;;;2.00;0.67;;;;;23.37;59.71;100968.50;5047739;28;45484;-66
2022/04/05 06:10:18;;;;;;;;;4.33;1.33;;;;;23.39;59.55;100969.34;5045193;28;45482;-66
2022/04/05 06:12:45;;;;;;;;;6.33;2.67;;;;;23.37;59.99;100971.19;5055135;28;45551;-66
2022/04/05 06:15:11;;;;;;;;;4.00;1.00;;;;;23.38;59.88;100972.06;5046943;28;46497;-67
2022/04/05 06:17:37;;;;;;;;;3.33;1.00;;;;;23.40;59.85;100987.25;5043819;28;45663;-66
2022/04/05 06:20:03;;;;;;;;;7.67;2.00;;;;;23.40;59.97;100981.88;5045821;28;45577;-65
2022/04/05 06:22:29;;;;;;;;;4.33;2.00;;;;;23.41;59.67;100983.63;5046982;28;45519;-65
2022/04/05 06:24:54;;;;;;;;;8.00;2.00;;;;;23.40;59.72;100981.00;5048190;28;51639;-67
2022/04/05 06:27:20;;;;;;;;;9.00;1.67;;;;;23.40;59.66;100984.56;5048018;28;45546;-67
2022/04/05 06:29:45;;;;;;;;;5.00;2.00;;;;;23.38;59.70;100983.72;5047936;28;45545;-66
2022/04/05 06:32:11;;;;;;;;;4.67;1.00;;;;;23.40;59.47;100983.69;5046091;28;45613;-66
2022/04/05 06:34:36;;;;;;;;;2.00;1.00;;;;;23.38;59.48;100997.19;5049663;28;46008;-66
2022/04/05 06:37:02;;;;;;;;;5.00;1.67;;;;;23.35;59.78;100994.66;5052098;28;50739;-65
2022/04/05 06:39:27;;;;;;;;;4.33;2.00;;;;;23.37;59.57;100991.88;5046285;28;45490;-65
2022/04/05 06:41:53;;;;;;;;;6.00;2.00;;;;;23.31;59.69;100986.72;5051827;28;45138;-65
2022/04/05 06:44:19;;;;;;;;;4.67;2.00;;;;;23.36;59.95;100999.09;5047733;28;46438;-65
2022/04/05 06:46:44;;;;;;;;;8.33;3.00;;;;;23.36;59.70;100995.53;5052110;28;45554;-64
2022/04/05 06:49:10;;;;;;;;;5.33;3.00;;;;;23.35;59.72;100991.06;5051327;28;45474;-66
2022/04/05 06:51:36;;;;;;;;;5.67;2.33;;;;;23.35;59.79;100991.06;5049254;28;45389;-65
2022/04/05 06:54:01;;;;;;;;;5.33;2.33;;;;;23.36;59.94;100987.44;5049075;28;45724;-66
2022/04/05 06:56:26;;;;;;;;;7.00;2.67;;;;;23.34;59.85;100992.91;5049590;28;48083;-65
2022/04/05 06:58:52;;;;;;;;;1.67;1.67;;;;;23.33;59.92;100995.63;5051698;28;45739;-66
2022/04/05 07:01:18;;;;;;;;;3.00;2.00;;;;;23.32;59.71;100993.88;5049806;28;45429;-66
2022/04/05 07:03:43;;;;;;;;;6.67;2.00;;;;;23.34;59.92;101003.66;5054424;28;46824;-66
2022/04/05 07:06:09;;;;;;;;;5.00;2.00;;;;;23.31;59.89;100987.59;5047308;28;45520;-64
2022/04/05 07:08:34;;;;;;;;;4.67;1.33;;;;;23.30;60.21;100984.97;5047132;28;45461;-65
2022/04/05 07:10:59;;;;;;;;;2.67;2.00;;;;;23.33;60.27;100991.13;5051322;28;45695;-65
2022/04/05 07:13:25;;;;;;;;;8.33;2.67;;;;;23.32;59.82;100983.97;5052713;28;50682;-66
2022/04/05 07:15:50;;;;;;;;;4.67;2.33;;;;;23.32;60.09;100992.06;5051066;28;45452;-66
2022/04/05 07:18:16;;;;;;;;;3.00;1.33;;;;;23.31;60.12;100984.03;5051178;28;45467;-67
2022/04/05 07:20:41;;;;;;;;;7.00;4.00;;;;;23.32;59.93;100989.34;5053936;28;45431;-64
2022/04/05 07:23:06;;;;;;;;;4.67;3.00;;;;;23.31;60.12;100987.59;5043961;28;45363;-64
2022/04/05 07:25:35;;;;;;;;;7.00;2.00;;;;;23.28;60.03;100982.34;5043554;28;48174;-66
2022/04/05 07:28:02;;;;;;;;;8.00;3.00;;;;;23.30;60.12;100982.28;5044940;28;45478;-65
2022/04/05 07:30:28;;;;;;;;;3.33;2.67;;;;;23.31;60.16;100990.31;5051646;28;45518;-64
2022/04/05 07:32:53;;;;;;;;;5.67;3.00;;;;;23.31;60.19;100987.59;5051889;28;46753;-66
2022/04/05 07:35:19;;;;;;;;;5.67;2.00;;;;;23.28;60.32;100985.06;5044678;28;45421;-62
2022/04/05 07:37:44;;;;;;;;;5.00;3.67;;;;;23.30;60.16;100985.84;5045202;28;45395;-62
2022/04/05 07:40:13;;;;;;;;;7.33;2.33;;;;;23.30;60.10;100995.75;5049046;28;45500;-62
2022/04/05 07:42:39;;;;;;;;;7.00;3.67;;;;;23.27;60.32;100988.66;5049434;28;46730;-62
2022/04/05 07:45:05;;;;;;;;;3.67;2.00;;;;;23.30;60.16;100991.25;5172154;22;45554;-63
2022/04/05 07:47:31;;;;;;;;;3.67;3.00;;;;;23.29;60.28;100991.31;5034804;28;45430;-62
2022/04/05 07:49:56;;;;;;;;;7.33;3.33;;;;;23.29;60.40;100989.50;5030840;28;46748;-61
2022/04/05 07:52:21;;;;;;;;;5.33;3.00;;;;;23.30;60.46;100984.97;5034085;28;47470;-62
2022/04/05 07:54:47;;;;;;;;;7.00;3.33;;;;;23.26;60.50;100984.22;5031358;28;45540;-62
2022/04/05 07:57:13;;;;;;;;;3.67;3.00;;;;;23.27;60.31;100977.88;5034798;28;45460;-62
2022/04/05 07:59:41;;;;;;;;;10.67;5.00;;;;;23.28;60.52;100990.44;5037215;28;45318;-64
2022/04/05 08:02:07;;;;;;;;;5.67;1.67;;;;;23.25;60.71;100990.53;5035303;28;47355;-62
2022/04/05 08:04:32;;;;;;;;;9.00;5.00;;;;;23.27;60.49;100991.34;5027893;28;47181;-63
2022/04/05 08:06:58;;;;;;;;;4.67;3.00;;;;;23.26;60.86;101001.25;5035164;28;45601;-62
2022/04/05 08:09:23;;;;;;;;;6.00;3.33;;;;;23.25;60.62;100995.94;5033397;28;45540;-63
2022/04/05 08:11:49;;;;;;;;;4.33;3.00;;;;;23.24;60.54;100996.88;5030493;28;47366;-61
2022/04/05 08:14:14;;;;;;;;;9.33;4.00;;;;;23.26;60.62;100997.69;5032800;28;45524;-61
2022/04/05 08:16:40;;;;;;;;;5.33;4.00;;;;;23.24;60.67;101004.97;5030769;28;45287;-62
2022/04/05 08:19:05;;;;;;;;;4.00;3.67;;;;;23.22;60.58;100996.03;5035742;28;46089;-63
2022/04/05 08:21:31;;;;;;;;;7.00;4.67;;;;;23.23;60.60;101000.53;5030181;28;46489;-64
2022/04/05 08:23:56;;;;;;;;;6.00;4.00;;;;;23.22;60.65;100994.25;5033892;28;45415;-62
2022/04/05 08:26:22;;;;;;;;;6.33;4.00;;;;;23.22;60.52;100999.66;5034513;28;45536;-62
2022/04/05 08:28:47;;;;;;;;;4.00;4.00;;;;;23.22;60.76;100998.72;5032350;28;45498;-62
2022/04/05 08:31:13;;;;;;;;;10.67;4.33;;;;;23.20;60.74;101003.31;5030110;28;46516;-62
2022/04/05 08:33:40;;;;;;;;;8.00;4.00;;;;;23.19;60.90;100996.19;5036222;28;49714;-63
2022/04/05 08:36:06;;;;;;;;;5.00;4.00;;;;;23.20;60.83;100998.81;5028507;28;45434;-62
2022/04/05 08:38:31;;;;;;;;;9.00;4.33;;;;;23.20;61.08;100997.94;5030120;28;45445;-62
2022/04/05 08:40:57;;;;;;;;;8.00;4.00;;;;;23.21;61.16;101003.25;5027412;28;47019;-64
2022/04/05 08:43:23;;;;;;;;;8.00;4.00;;;;;23.22;61.13;100996.94;5033304;28;45439;-63
2022/04/05 08:45:57;;;;;;;;;8.67;5.33;;;;;23.22;60.92;101004.13;5029945;28;45558;-63
2022/04/05 08:48:26;;;;;;;;;6.33;3.00;;;;;23.21;61.15;100997.00;5034987;28;45562;-63
2022/04/05 08:50:51;;;;;;;;;5.00;4.33;;;;;23.21;61.03;100997.00;5013768;28;46628;-64
2022/04/05 08:53:17;;;;;;;;;12.33;4.33;;;;;23.24;60.93;101002.28;5027900;28;45441;-64
2022/04/05 08:55:42;;;;;;;;;7.00;3.67;;;;;23.24;60.96;100996.88;5018555;28;45886;-64
2022/04/05 08:58:07;;;;;;;;;7.33;4.00;;;;;23.22;61.01;100996.94;5024552;28;46353;-62
2022/04/05 09:00:33;;;;;;;;;5.67;3.67;;;;;23.24;61.14;100996.88;5035217;28;46479;-63
2022/04/05 09:03:00;;;;;;;;;11.67;5.00;;;;;23.20;61.45;100988.03;5034702;28;45434;-62
2022/04/05 09:05:39;;;;;;;;;6.00;4.00;;;;;23.23;60.88;100990.63;5033460;28;45580;-63
2022/04/05 09:08:12;;;;;;;;;7.00;5.33;;;;;23.25;61.28;100993.25;5033939;28;45808;-63
2022/04/05 09:10:38;;;;;;;;;8.67;5.00;;;;;23.22;61.26;100985.25;5034897;28;46527;-64
2022/04/05 09:13:03;;;;;;;;;8.67;6.00;;;;;23.23;61.28;100987.91;5034666;28;45544;-65
2022/04/05 09:15:29;;;;;;;;;8.33;6.00;;;;;23.21;61.40;100976.31;5034210;28;45529;-63
2022/04/05 09:17:54;;;;;;;;;8.33;3.00;;;;;23.24;61.42;100992.38;5034332;28;45425;-63
2022/04/05 09:20:20;;;;;;;;;8.00;4.00;;;;;23.24;61.48;100991.50;5031876;28;47352;-61
2022/04/05 09:22:46;;;;;;;;;5.33;3.33;;;;;23.24;61.33;100992.38;5035745;28;45620;-62
2022/04/05 09:25:16;;;;;;;;;9.00;6.00;;;;;23.25;61.32;100995.94;5034648;28;45358;-66
2022/04/05 09:27:44;;;;;;;;;4.33;4.00;;;;;23.24;61.22;100995.06;5031281;28;45467;-63
2022/04/05 09:30:14;;;;;;;;;11.33;5.00;;;;;23.24;61.41;100996.88;5034667;28;46093;-63
2022/04/05 09:32:47;;;;;;;;;10.00;5.33;;;;;23.23;61.50;100990.63;5030716;28;45591;-65
2022/04/05 09:35:12;;;;;;;;;9.33;6.67;;;;;23.23;61.44;100990.63;5032277;28;45415;-63
2022/04/05 09:37:40;;;;;;;;;6.33;4.00;;;;;23.25;61.11;100998.63;5027707;28;45384;-66
2022/04/05 09:40:22;;;;;;;;;7.33;4.33;;;;;23.25;61.40;100999.50;5032688;28;46030;-65
2022/04/05 09:43:09;;;;;;;;;6.67;5.67;;;;;23.25;61.28;100995.94;5032243;28;45540;-65
2022/04/05 09:45:52;;;;;;;;;6.33;5.00;;;;;23.22;61.43;100991.56;5034490;28;45643;-65
2022/04/05 09:48:36;;;;;;;;;9.00;3.67;;;;;23.25;61.86;101001.31;5033950;28;45672;-65
2022/04/05 09:51:04;;;;;;;;;11.67;6.00;;;;;23.24;61.82;100995.06;5013979;28;48735;-62
2022/04/05 09:53:38;;;;;;;;;11.33;5.00;;;;;23.24;61.83;100997.75;5031644;28;45499;-64
2022/04/05 09:56:19;;;;;;;;;10.00;5.00;;;;;23.24;61.49;101000.44;5026004;28;45366;-64
2022/04/05 09:59:04;;;;;;;;;7.00;4.00;;;;;23.25;61.86;100998.63;5028606;28;45418;-64
2022/04/05 10:01:32;;;;;;;;;7.67;5.33;;;;;23.26;61.71;101001.25;5024719;28;46685;-64
2022/04/05 10:04:10;;;;;;;;;8.00;6.00;;;;;23.24;62.04;100997.75;5031626;28;45549;-62
2022/04/05 10:06:43;;;;;;;;;9.33;5.67;;;;;23.27;61.71;100996.75;5031025;28;45485;-63
2022/04/05 10:09:08;;;;;;;;;5.33;5.00;;;;;23.25;61.90;100993.25;5028982;28;45529;-64
2022/04/05 10:11:35;;;;;;;;;11.33;6.33;;;;;23.29;62.07;100994.88;5019603;28;46305;-63
2022/04/05 10:14:01;;;;;;;;;8.00;6.00;;;;;23.31;62.25;100993.00;5028831;28;45514;-64
2022/04/05 10:16:27;;;;;;;;;9.00;4.67;;;;;23.35;62.18;101000.03;5015388;28;45419;-63
2022/04/05 10:18:57;;;;;;;;;7.00;6.00;;;;;23.35;62.16;100989.25;5027223;28;45247;-63
2022/04/05 10:28:58;;;;;;;;;11.33;6.00;;;;;23.46;62.03;101002.31;5030261;28;45631;-63
2022/04/05 10:31:36;;;;;;;;;11.33;5.00;;;;;23.48;62.48;100992.31;5030352;28;45291;-63
2022/04/05 10:34:24;;;;;;;;;9.33;5.67;;;;;23.50;61.94;101003.94;5033735;28;47668;-65
2022/04/05 10:37:05;;;;;;;;;4.33;4.00;;;;;23.52;61.97;101002.94;5029144;28;45289;-66
2022/04/05 10:39:31;;;;;;;;;17.67;5.67;;;;;23.51;62.04;101003.00;5032963;28;45260;-63
2022/04/05 10:42:08;;;;;;;;;9.00;6.33;;;;;23.55;61.76;101006.47;5036311;28;45447;-63
2022/04/05 10:44:36;;;;;;;;;8.67;5.00;;;;;23.53;62.05;100999.28;5032360;28;46891;-65
2022/04/05 10:47:04;;;;;;;;;5.67;4.00;;;;;23.55;61.87;100990.28;5030496;28;45542;-66
2022/04/05 10:49:39;;;;;;;;;8.33;4.33;;;;;23.55;61.59;100987.59;5024781;28;45478;-64
2022/04/05 10:52:19;;;;;;;;;10.00;7.00;;;;;23.54;61.91;100992.06;5019493;28;45669;-66
2022/04/05 10:54:52;;;;;;;;;7.33;5.00;;;;;23.54;62.05;100994.78;5030826;28;47481;-65
2022/04/05 10:57:50;;;;;;;;;10.00;5.67;;;;;23.53;61.87;100991.19;5031615;28;46565;-62
2022/04/05 11:00:19;;;;;;;;;9.67;5.00;;;;;23.54;61.82;100986.69;5021828;28;45468;-62
2022/04/05 11:02:45;;;;;;;;;5.67;5.00;;;;;23.52;61.77;100985.88;5029258;28;45458;-62
2022/04/05 11:05:14;;;;;;;;;10.33;6.00;;;;;23.53;61.94;100991.19;5031473;28;46973;-64
2022/04/05 11:07:51;;;;;;;;;10.67;6.00;;;;;23.52;61.81;101000.22;5032475;28;45469;-63
2022/04/05 11:10:26;;;;;;;;;11.00;7.00;;;;;23.50;61.87;100982.38;5032704;28;45324;-63
2022/04/05 11:13:02;;;;;;;;;11.00;6.67;;;;;23.50;62.11;100980.56;5026760;28;45486;-63
2022/04/05 11:15:41;;;;;;;;;12.00;8.00;;;;;23.49;61.95;100984.19;5020527;28;47588;-65
2022/04/05 11:18:10;;;;;;;;;8.33;5.00;;;;;23.52;61.95;100981.38;5031669;28;45447;-66
2022/04/05 11:20:38;;;;;;;;;13.33;6.00;;;;;23.50;62.38;100985.06;5027378;28;45381;-62
2022/04/05 11:23:03;;;;;;;;;8.00;5.67;;;;;23.50;62.08;100987.78;5021462;28;45552;-65
2022/04/05 11:25:29;;;;;;;;;9.00;4.33;;;;;23.51;61.92;100990.41;5035666;28;46382;-64
2022/04/05 11:27:55;;;;;;;;;6.33;6.00;;;;;23.51;61.89;100993.09;5034399;28;45686;-63
2022/04/05 11:30:21;;;;;;;;;8.00;5.00;;;;;23.51;61.81;100984.13;5036745;28;45476;-63